^^
Station Historical Data
Daily Summary for June 2, 2017 Units:  Metric    English   Both
« Previous Day
Next Day »
Daily Weekly Monthly Yearly Custom
  High: Low: Average:
Temperature: 28.1 °C 14.3 °C 20.4 °C
Dew Point: 2.4 °C -0.8 °C 0.5 °C
Humidity: 37% 16% 27%
Wind Speed: 14.3km/h 0km/h 3.9km/h
Wind Gust: 25.7km/h - -
Wind- - SSW
Pressure: 1018.8 hPa 1014.8 hPa -
Precipitation: 0 mm    
Historical Graphs
 
 
Tabular Data for June 2, 2017
Time Temperature Dew Point Pressure Wind Wind Speed Wind Gust Humidity Rainfall Rate (Hourly) solar Conditions
00:46 19.1 °C -0.3 °C 1018.2 hPa Calm   8 km/h 27% 0 mm 0.0 W/m2
00:51 19.1 °C 0.2 °C 1018.2 hPa North 11.1 km/h 14.5 km/h 28% 0 mm 0.0 W/m2
01:01 19.1 °C 0.2 °C 1018.2 hPa North 9.7 km/h 12.9 km/h 28% 0 mm 0.0 W/m2
01:06 18.9 °C 0 °C 1018.2 hPa North 6.4 km/h 9.7 km/h 28% 0 mm 0.0 W/m2
01:11 18.8 °C -0.1 °C 1018.2 hPa North 3.2 km/h 8 km/h 28% 0 mm 0.0 W/m2
01:16 18.7 °C -0.2 °C 1018.5 hPa North 3.2 km/h 6.4 km/h 28% 0 mm 0.0 W/m2
01:21 18.4 °C -0.4 °C 1018.2 hPa Calm   1.6 km/h 28% 0 mm 0.0 W/m2
01:26 18.3 °C 0 °C 1018.2 hPa Calm   3.2 km/h 29% 0 mm 0.0 W/m2
01:31 18.2 °C -0.1 °C 1018.5 hPa Calm     29% 0 mm 0.0 W/m2
01:37 17.9 °C -0.4 °C 1018.5 hPa Calm     29% 0 mm 0.0 W/m2
01:42 17.7 °C -0.6 °C 1018.5 hPa Calm     29% 0 mm 0.0 W/m2
01:53 17.3 °C -0.4 °C 1018.5 hPa Calm     30% 0 mm 0.0 W/m2
01:58 17.2 °C -0.1 °C 1018.2 hPa Calm     31% 0 mm 0.0 W/m2
02:03 17.1 °C -0.2 °C 1018.2 hPa Calm     31% 0 mm 0.0 W/m2
02:13 17.3 °C 0 °C 1018.2 hPa North 1.4 km/h 11.3 km/h 31% 0 mm 0.0 W/m2
02:18 17.4 °C -0.4 °C 1017.8 hPa Calm   11.3 km/h 30% 0 mm 0.0 W/m2
02:23 17.3 °C -0.4 °C 1017.8 hPa Calm   6.4 km/h 30% 0 mm 0.0 W/m2
02:28 17 °C -0.7 °C 1018.2 hPa North 1.4 km/h 1.6 km/h 30% 0 mm 0.0 W/m2
02:33 16.6 °C -0.6 °C 1018.2 hPa Calm   3.2 km/h 31% 0 mm 0.0 W/m2
02:39 16.2 °C -0.5 °C 1017.8 hPa Calm     32% 0 mm 0.0 W/m2
02:44 16.1 °C -0.2 °C 1017.8 hPa North 9.7 km/h 12.9 km/h 33% 0 mm 0.0 W/m2
02:49 16.4 °C -0.3 °C 1018.2 hPa Calm   11.3 km/h 32% 0 mm 0.0 W/m2
02:54 16.8 °C 0 °C 1018.2 hPa North 6.4 km/h 8 km/h 32% 0 mm 0.0 W/m2
02:59 16.9 °C -0.3 °C 1018.2 hPa Calm   9.7 km/h 31% 0 mm 0.0 W/m2
03:04 16.9 °C -0.3 °C 1018.2 hPa Calm   8 km/h 31% 0 mm 0.0 W/m2
03:09 16.8 °C -0.4 °C 1018.2 hPa Calm   12.9 km/h 31% 0 mm 0.0 W/m2
03:19 16.3 °C -0.4 °C 1017.8 hPa North 3.2 km/h 11.3 km/h 32% 0 mm 0.0 W/m2
03:24 16.1 °C -0.2 °C 1017.8 hPa Calm   3.2 km/h 33% 0 mm 0.0 W/m2
03:30 15.9 °C -0.4 °C 1017.8 hPa Calm     33% 0 mm 0.0 W/m2
03:35 15.7 °C -0.5 °C 1017.8 hPa Calm     33% 0 mm 0.0 W/m2
03:40 15.5 °C -0.3 °C 1017.8 hPa Calm     34% 0 mm 0.0 W/m2
03:45 15.3 °C -0.5 °C 1017.8 hPa Calm     34% 0 mm 0.0 W/m2
03:55 14.8 °C -0.5 °C 1017.8 hPa Calm     35% 0 mm 0.0 W/m2
04:00 14.7 °C -0.6 °C 1017.8 hPa Calm     35% 0 mm 0.0 W/m2
04:05 14.3 °C -0.6 °C 1017.8 hPa Calm   6.4 km/h 36% 0 mm 0.0 W/m2
04:10 14.6 °C -0.3 °C 1017.8 hPa Calm   3.2 km/h 36% 0 mm 0.0 W/m2
04:15 15.1 °C 0.5 °C 1017.8 hPa North 1.4 km/h 6.4 km/h 37% 0 mm 0.0 W/m2
04:20 15.9 °C 0.5 °C 1017.8 hPa Calm   3.2 km/h 35% 0 mm 0.0 W/m2
04:25 16.6 °C 0.7 °C 1017.8 hPa North 11.1 km/h 12.9 km/h 34% 0 mm 0.0 W/m2
04:31 17 °C 0.6 °C 1017.8 hPa Calm   12.9 km/h 33% 0 mm 0.0 W/m2
04:35 17.1 °C 0.7 °C 1017.5 hPa Calm   14.5 km/h 33% 0 mm 0.0 W/m2
04:41 17.3 °C 0.9 °C 1017.5 hPa North 13 km/h 20.9 km/h 33% 0 mm 0.0 W/m2
04:46 17.5 °C 1 °C 1017.5 hPa Calm   20.9 km/h 33% 0 mm 0.0 W/m2
04:51 17.5 °C 0.6 °C 1017.8 hPa North 7.9 km/h 16.1 km/h 32% 0 mm 0.0 W/m2
04:56 17.3 °C 0.9 °C 1017.8 hPa North 11.1 km/h 12.9 km/h 33% 0 mm 0.0 W/m2
05:06 17.2 °C 0.8 °C 1017.8 hPa North 11.1 km/h 16.1 km/h 33% 0 mm 0.0 W/m2
05:16 17.4 °C 1 °C 1017.8 hPa NE 6.4 km/h 17.7 km/h 33% 0 mm 0.0 W/m2
05:21 17.4 °C 1 °C 1017.8 hPa NE 7.9 km/h 11.3 km/h 33% 0 mm 0.0 W/m2
05:26 17.3 °C 0.9 °C 1017.8 hPa NE 7.9 km/h 14.5 km/h 33% 0 mm 0.0 W/m2
05:31 17.3 °C 0.9 °C 1018.2 hPa NE 9.7 km/h 14.5 km/h 33% 0 mm 0.0 W/m2
05:46 17 °C 0.6 °C 1018.2 hPa NE 7.9 km/h 14.5 km/h 33% 0 mm 0.0 W/m2
05:56 16.8 °C 0.8 °C 1018.2 hPa NE 6.4 km/h 11.3 km/h 34% 0 mm 0.0 W/m2
06:01 16.8 °C 0.8 °C 1018.5 hPa NE 9.7 km/h 12.9 km/h 34% 0 mm 0.0 W/m2
06:06 16.8 °C 0.8 °C 1018.5 hPa NE 13 km/h 13 km/h 34% 0 mm 0.0 W/m2
06:16 16.6 °C 1.1 °C 1018.5 hPa NE 7.9 km/h 14.5 km/h 35% 0 mm 0.0 W/m2
06:26 16.7 °C 1.2 °C 1018.5 hPa NE 7.9 km/h 11.3 km/h 35% 0 mm 0.0 W/m2
06:41 16.6 °C 1.1 °C 1018.5 hPa NE 9.7 km/h 16.1 km/h 35% 0 mm 9.0 W/m2
06:47 16.4 °C 0.9 °C 1018.5 hPa NE 9.7 km/h 14.5 km/h 35% 0 mm 12.0 W/m2
06:56 16.4 °C 0.9 °C 1018.5 hPa NE 11.1 km/h 14.5 km/h 35% 0 mm 16.0 W/m2
07:03 16.4 °C 0.9 °C 1018.5 hPa NE 3.2 km/h 12.9 km/h 35% 0 mm 19.0 W/m2
07:06 16.6 °C 1.1 °C 1018.5 hPa NE 4.7 km/h 12.9 km/h 35% 0 mm 21.0 W/m2
07:16 16.8 °C 1.2 °C 1018.5 hPa NE 11.1 km/h 12.9 km/h 35% 0 mm 28.0 W/m2
07:31 17.5 °C 1.5 °C 1018.8 hPa NE 7.9 km/h 11.3 km/h 34% 0 mm 118.0 W/m2
07:52 18.2 °C 1.7 °C 1018.8 hPa NE 3.2 km/h 11.3 km/h 33% 0 mm 169.0 W/m2
08:07 18.9 °C 1.8 °C 1018.8 hPa NE 9.7 km/h 9.7 km/h 32% 0 mm 225.0 W/m2
08:12 19.5 °C 1.9 °C 1018.8 hPa NE 13 km/h 13 km/h 31% 0 mm 253.0 W/m2
08:32 20.4 °C 2.2 °C 1018.8 hPa NE 1.4 km/h 12.9 km/h 30% 0 mm 295.0 W/m2
08:37 20.8 °C 2.1 °C 1018.8 hPa NE 4.7 km/h 8 km/h 29% 0 mm 323.0 W/m2
08:50 21.1 °C 1.9 °C 1018.8 hPa Calm   8 km/h 28% 0 mm 355.0 W/m2
08:59 20.7 °C 1.5 °C 1018.8 hPa NE 1.4 km/h 9.7 km/h 28% 0 mm 380.0 W/m2
09:59 22.7 °C 2.2 °C 1018.8 hPa NE 11.1 km/h 14.5 km/h 26% 0 mm 506.0 W/m2
10:04 23.1 °C 2 °C 1018.8 hPa NE 3.2 km/h 14.5 km/h 25% 0 mm 515.0 W/m2
10:09 23.3 °C 2.2 °C 1018.8 hPa NE 14.3 km/h 16.1 km/h 25% 0 mm 522.0 W/m2
10:14 23.4 °C 2.2 °C 1018.8 hPa NNE 6.4 km/h 14.5 km/h 25% 0 mm 531.0 W/m2
10:24 24 °C 2.2 °C 1018.5 hPa NNE 7.9 km/h 16.1 km/h 24% 0 mm 545.0 W/m2
10:29 24 °C 2.2 °C 1018.5 hPa NNE 9.7 km/h 12.9 km/h 24% 0 mm 552.0 W/m2
10:36 24.2 °C 2.4 °C 1018.5 hPa NNE 7.9 km/h 12.9 km/h 24% 0 mm 559.0 W/m2
10:48 24.4 °C 1.9 °C 1018.2 hPa Calm   16.1 km/h 23% 0 mm 570.0 W/m2
10:55 24.6 °C 1.5 °C 1018.2 hPa NNE 7.9 km/h 16.1 km/h 22% 0 mm 577.0 W/m2
11:55 26.2 °C 2.1 °C 1017.2 hPa Calm   19.3 km/h 21% 0 mm 599.0 W/m2
12:10 26.3 °C 2.2 °C 1016.8 hPa North 11.1 km/h 19.3 km/h 21% 0 mm 596.0 W/m2
12:25 26.7 °C 1.9 °C 1016.5 hPa North 6.4 km/h 17.7 km/h 20% 0 mm 587.0 W/m2
12:31 26.7 °C 1.9 °C 1016.5 hPa North 6.4 km/h 17.7 km/h 20% 0 mm 587.0 W/m2
12:40 26.8 °C 2 °C 1016.5 hPa North 1.4 km/h 19.3 km/h 20% 0 mm 577.0 W/m2
12:55 27.1 °C 2.2 °C 1016.1 hPa NNW 13 km/h 25.7 km/h 20% 0 mm 566.0 W/m2
13:06 27.2 °C 1.6 °C 1016.1 hPa North 13 km/h 24.1 km/h 19% 0 mm 557.0 W/m2
13:21 27.5 °C 1.8 °C 1015.8 hPa NNW 7.9 km/h 20.9 km/h 19% 0 mm 536.0 W/m2
13:36 27.4 °C 1.7 °C 1015.5 hPa NNW 1.4 km/h 19.3 km/h 19% 0 mm 513.0 W/m2
13:46 27.6 °C 1.9 °C 1015.5 hPa NNW 11.1 km/h 20.9 km/h 19% 0 mm 487.0 W/m2
13:56 27.8 °C 1.3 °C 1015.5 hPa NNW 14.3 km/h 14.5 km/h 18% 0 mm 468.0 W/m2
14:10 27.7 °C 1.2 °C 1015.1 hPa North 9.7 km/h 20.9 km/h 18% 0 mm 452.0 W/m2
14:16 27.6 °C 1.1 °C 1015.1 hPa North 11.1 km/h 20.9 km/h 18% 0 mm 425.0 W/m2
14:26 27.8 °C 0.5 °C 1015.1 hPa North 7.9 km/h 19.3 km/h 17% 0 mm 403.0 W/m2
14:44 27.8 °C 0.5 °C 1015.1 hPa Calm   17.7 km/h 17% 0 mm 369.0 W/m2
14:53 28.1 °C 0.8 °C 1015.1 hPa Calm   19.3 km/h 17% 0 mm 343.0 W/m2
14:56 28.1 °C -0.1 °C 1015.1 hPa North 14.3 km/h 17.7 km/h 16% 0 mm 329.0 W/m2
15:01 28 °C 0.7 °C 1015.1 hPa North 1.4 km/h 14.5 km/h 17% 0 mm 315.0 W/m2
15:04 28 °C 0.7 °C 1015.1 hPa North 1.4 km/h 14.5 km/h 17% 0 mm 315.0 W/m2
15:11 27.9 °C 0.6 °C 1015.1 hPa North 6.4 km/h 17.7 km/h 17% 0 mm 288.0 W/m2
15:16 28.1 °C 0.8 °C 1015.1 hPa Calm   11.3 km/h 17% 0 mm 274.0 W/m2
15:31 28.1 °C 0.8 °C 1015.1 hPa Calm   12.9 km/h 17% 0 mm 227.0 W/m2
15:47 27.9 °C 0.6 °C 1015.1 hPa Calm     17% 0 mm 172.0 W/m2
16:02 27.8 °C 0.5 °C 1015.1 hPa Calm   8 km/h 17% 0 mm 118.0 W/m2
16:17 27.7 °C 0.4 °C 1015.1 hPa Calm   9.7 km/h 17% 0 mm 70.0 W/m2
16:33 27.1 °C -0.1 °C 1015.1 hPa Calm   12.9 km/h 17% 0 mm 37.0 W/m2
16:53 26.6 °C 0.3 °C 1014.8 hPa Calm   9.7 km/h 18% 0 mm 12.0 W/m2
16:58 26.2 °C 0 °C 1014.8 hPa Calm     18% 0 mm 7.0 W/m2
17:08 25.5 °C 0.2 °C 1014.8 hPa Calm     19% 0 mm 0.0 W/m2
17:24 24.3 °C 0.6 °C 1014.8 hPa Calm     21% 0 mm 0.0 W/m2
17:34 23.6 °C 0.6 °C 1014.8 hPa Calm     22% 0 mm 0.0 W/m2
17:45 22.9 °C 0.1 °C 1014.8 hPa Calm     22% 0 mm 0.0 W/m2
18:05 22.4 °C 0.2 °C 1015.1 hPa Calm     23% 0 mm 0.0 W/m2
18:16 22.1 °C 0.6 °C 1015.1 hPa Calm     24% 0 mm 0.0 W/m2
18:21 21.7 °C 0.2 °C 1014.8 hPa Calm     24% 0 mm 0.0 W/m2
18:36 21.7 °C 0.2 °C 1015.1 hPa Calm   3.2 km/h 24% 0 mm 0.0 W/m2
18:46 21.4 °C 0.6 °C 1014.8 hPa North 6.4 km/h 8 km/h 25% 0 mm 0.0 W/m2
19:08 21.8 °C 0.3 °C 1015.1 hPa North 3.2 km/h 9.7 km/h 24% 0 mm 0.0 W/m2
19:23 21.5 °C 0.1 °C 1015.1 hPa Calm   8 km/h 24% 0 mm 0.0 W/m2
19:38 20.3 °C -0.4 °C 1015.1 hPa Calm     25% 0 mm 0.0 W/m2
19:48 19.1 °C -0.3 °C 1015.1 hPa Calm   9.7 km/h 27% 0 mm 0.0 W/m2
20:03 18.1 °C -0.7 °C 1015.5 hPa North 6.4 km/h 11.3 km/h 28% 0 mm 0.0 W/m2
20:18 18.1 °C -0.7 °C 1015.8 hPa Calm     28% 0 mm 0.0 W/m2
20:34 18.4 °C -0.4 °C 1015.8 hPa Calm     28% 0 mm 0.0 W/m2
20:53 19.2 °C -0.3 °C 1016.1 hPa Calm   3.2 km/h 27% 0 mm 0.0 W/m2
21:04 19 °C -0.4 °C 1016.1 hPa Calm   3.2 km/h 27% 0 mm 0.0 W/m2
21:14 19 °C -0.4 °C 1016.1 hPa North 1.4 km/h 3.2 km/h 27% 0 mm 0.0 W/m2
21:28 19 °C -0.4 °C 1016.1 hPa Calm   1.6 km/h 27% 0 mm 0.0 W/m2
21:38 19.2 °C -0.8 °C 1016.1 hPa North 6.4 km/h 8 km/h 26% 0 mm 0.0 W/m2
21:58 19.6 °C -0.4 °C 1015.8 hPa Calm   11.3 km/h 26% 0 mm 0.0 W/m2
22:17 19.5 °C -0.5 °C 1015.8 hPa North 1.4 km/h 11.3 km/h 26% 0 mm 0.0 W/m2
22:33 19.4 °C -0.6 °C 1015.8 hPa North 6.4 km/h 11.3 km/h 26% 0 mm 0.0 W/m2
22:44 19.4 °C -0.1 °C 1015.8 hPa North 3.2 km/h 9.7 km/h 27% 0 mm 0.0 W/m2
22:53 19.3 °C -0.2 °C 1015.8 hPa North 7.9 km/h 11.3 km/h 27% 0 mm 0.0 W/m2
23:02 19.3 °C -0.2 °C 1015.8 hPa Calm   9.7 km/h 27% 0 mm 0.0 W/m2
23:07 18.9 °C -0.5 °C 1015.8 hPa Calm     27% 0 mm 0.0 W/m2
23:13 18.8 °C -0.1 °C 1015.8 hPa Calm     28% 0 mm 0.0 W/m2
23:24 18.6 °C -0.3 °C 1015.8 hPa Calm     28% 0 mm 0.0 W/m2
23:32 18.6 °C -0.3 °C 1015.8 hPa Calm     28% 0 mm 0.0 W/m2
Canyon Roadhouse, Fishriver Canyon, Namibia
Compliments of Weather Underground - 2.25 mb